sensor_id;sensor_type;location;lat;lon;timestamp;P1;durP1;ratioP1;P2;durP2;ratioP2
5060;SDS011;2549;52.128;21.068;2024-02-21T00:00:29;10.75;;;2.55;;
5060;SDS011;2549;52.128;21.068;2024-02-21T00:02:56;9.43;;;2.70;;
5060;SDS011;2549;52.128;21.068;2024-02-21T00:05:26;11.32;;;3.45;;
5060;SDS011;2549;52.128;21.068;2024-02-21T00:07:53;14.63;;;3.58;;
5060;SDS011;2549;52.128;21.068;2024-02-21T00:10:20;5.32;;;2.50;;
5060;SDS011;2549;52.128;21.068;2024-02-21T00:12:47;11.57;;;2.92;;
5060;SDS011;2549;52.128;21.068;2024-02-21T00:15:14;14.82;;;3.88;;
5060;SDS011;2549;52.128;21.068;2024-02-21T00:17:41;14.25;;;3.60;;
5060;SDS011;2549;52.128;21.068;2024-02-21T00:20:08;8.95;;;2.97;;
5060;SDS011;2549;52.128;21.068;2024-02-21T00:22:37;7.18;;;2.90;;
5060;SDS011;2549;52.128;21.068;2024-02-21T00:25:04;14.40;;;3.38;;
5060;SDS011;2549;52.128;21.068;2024-02-21T00:27:31;7.70;;;3.07;;
5060;SDS011;2549;52.128;21.068;2024-02-21T00:29:58;12.27;;;3.25;;
5060;SDS011;2549;52.128;21.068;2024-02-21T00:32:25;7.13;;;2.75;;
5060;SDS011;2549;52.128;21.068;2024-02-21T00:34:52;10.38;;;2.78;;
5060;SDS011;2549;52.128;21.068;2024-02-21T00:37:19;10.73;;;2.75;;
5060;SDS011;2549;52.128;21.068;2024-02-21T00:39:46;9.73;;;2.40;;
5060;SDS011;2549;52.128;21.068;2024-02-21T00:42:13;13.93;;;2.83;;
5060;SDS011;2549;52.128;21.068;2024-02-21T00:44:40;6.80;;;2.97;;
5060;SDS011;2549;52.128;21.068;2024-02-21T00:47:06;11.40;;;4.32;;
5060;SDS011;2549;52.128;21.068;2024-02-21T00:49:33;6.00;;;2.90;;
5060;SDS011;2549;52.128;21.068;2024-02-21T00:52:00;10.77;;;3.08;;
5060;SDS011;2549;52.128;21.068;2024-02-21T00:54:27;5.13;;;2.47;;
5060;SDS011;2549;52.128;21.068;2024-02-21T00:57:05;8.85;;;3.10;;
5060;SDS011;2549;52.128;21.068;2024-02-21T00:59:32;10.70;;;2.73;;
5060;SDS011;2549;52.128;21.068;2024-02-21T01:01:59;7.38;;;3.05;;
5060;SDS011;2549;52.128;21.068;2024-02-21T01:04:26;11.75;;;3.10;;
5060;SDS011;2549;52.128;21.068;2024-02-21T01:06:53;12.68;;;2.75;;
5060;SDS011;2549;52.128;21.068;2024-02-21T01:09:20;7.20;;;2.88;;
5060;SDS011;2549;52.128;21.068;2024-02-21T01:11:46;21.08;;;3.47;;
5060;SDS011;2549;52.128;21.068;2024-02-21T01:14:13;13.25;;;3.30;;
5060;SDS011;2549;52.128;21.068;2024-02-21T01:16:40;9.27;;;3.08;;
5060;SDS011;2549;52.128;21.068;2024-02-21T01:19:07;12.23;;;3.55;;
5060;SDS011;2549;52.128;21.068;2024-02-21T01:21:34;6.50;;;3.00;;
5060;SDS011;2549;52.128;21.068;2024-02-21T01:24:01;6.30;;;2.75;;
5060;SDS011;2549;52.128;21.068;2024-02-21T01:26:28;13.52;;;4.75;;
5060;SDS011;2549;52.128;21.068;2024-02-21T01:28:55;12.00;;;3.90;;
5060;SDS011;2549;52.128;21.068;2024-02-21T01:31:22;9.25;;;3.33;;
5060;SDS011;2549;52.128;21.068;2024-02-21T01:33:49;8.20;;;3.83;;
5060;SDS011;2549;52.128;21.068;2024-02-21T01:36:16;16.05;;;3.42;;
5060;SDS011;2549;52.128;21.068;2024-02-21T01:38:43;8.40;;;3.60;;
5060;SDS011;2549;52.128;21.068;2024-02-21T01:41:10;12.52;;;4.03;;
5060;SDS011;2549;52.128;21.068;2024-02-21T01:43:36;11.43;;;3.60;;
5060;SDS011;2549;52.128;21.068;2024-02-21T01:46:03;7.13;;;2.92;;
5060;SDS011;2549;52.128;21.068;2024-02-21T01:48:30;12.80;;;3.53;;
5060;SDS011;2549;52.128;21.068;2024-02-21T01:50:58;9.70;;;3.10;;
5060;SDS011;2549;52.128;21.068;2024-02-21T01:53:27;16.05;;;3.10;;
5060;SDS011;2549;52.128;21.068;2024-02-21T01:55:56;10.27;;;3.30;;
5060;SDS011;2549;52.128;21.068;2024-02-21T01:58:24;9.13;;;2.80;;
5060;SDS011;2549;52.128;21.068;2024-02-21T02:00:51;11.90;;;4.50;;
5060;SDS011;2549;52.128;21.068;2024-02-21T02:03:19;10.55;;;3.15;;
5060;SDS011;2549;52.128;21.068;2024-02-21T02:05:46;4.30;;;2.97;;
5060;SDS011;2549;52.128;21.068;2024-02-21T02:08:14;8.50;;;2.80;;
5060;SDS011;2549;52.128;21.068;2024-02-21T02:10:42;8.40;;;3.45;;
5060;SDS011;2549;52.128;21.068;2024-02-21T02:13:09;13.82;;;4.18;;
5060;SDS011;2549;52.128;21.068;2024-02-21T02:15:40;13.90;;;3.53;;
5060;SDS011;2549;52.128;21.068;2024-02-21T02:18:11;14.15;;;3.30;;
5060;SDS011;2549;52.128;21.068;2024-02-21T02:20:39;6.80;;;2.95;;
5060;SDS011;2549;52.128;21.068;2024-02-21T02:23:10;7.88;;;3.40;;
5060;SDS011;2549;52.128;21.068;2024-02-21T02:25:38;6.82;;;4.05;;
5060;SDS011;2549;52.128;21.068;2024-02-21T02:28:06;11.60;;;3.50;;
5060;SDS011;2549;52.128;21.068;2024-02-21T02:30:34;6.20;;;3.50;;
5060;SDS011;2549;52.128;21.068;2024-02-21T02:33:05;8.18;;;3.63;;
5060;SDS011;2549;52.128;21.068;2024-02-21T02:35:32;10.77;;;3.28;;
5060;SDS011;2549;52.128;21.068;2024-02-21T02:38:04;8.40;;;3.30;;
5060;SDS011;2549;52.128;21.068;2024-02-21T02:40:33;9.23;;;3.22;;
5060;SDS011;2549;52.128;21.068;2024-02-21T02:43:00;4.85;;;3.08;;
5060;SDS011;2549;52.128;21.068;2024-02-21T02:45:28;14.07;;;3.83;;
5060;SDS011;2549;52.128;21.068;2024-02-21T02:47:55;6.60;;;3.38;;
5060;SDS011;2549;52.128;21.068;2024-02-21T02:50:26;12.10;;;3.90;;
5060;SDS011;2549;52.128;21.068;2024-02-21T02:52:54;9.25;;;3.53;;
5060;SDS011;2549;52.128;21.068;2024-02-21T02:55:22;16.60;;;3.28;;
5060;SDS011;2549;52.128;21.068;2024-02-21T02:57:49;13.32;;;3.88;;
5060;SDS011;2549;52.128;21.068;2024-02-21T03:00:16;14.15;;;3.42;;
5060;SDS011;2549;52.128;21.068;2024-02-21T03:02:44;5.72;;;2.95;;
5060;SDS011;2549;52.128;21.068;2024-02-21T03:05:13;10.35;;;3.40;;
5060;SDS011;2549;52.128;21.068;2024-02-21T03:07:42;7.53;;;3.60;;
5060;SDS011;2549;52.128;21.068;2024-02-21T03:10:10;9.55;;;3.45;;
5060;SDS011;2549;52.128;21.068;2024-02-21T03:12:38;8.82;;;4.03;;
5060;SDS011;2549;52.128;21.068;2024-02-21T03:15:05;7.38;;;3.65;;
5060;SDS011;2549;52.128;21.068;2024-02-21T03:17:33;7.30;;;3.67;;
5060;SDS011;2549;52.128;21.068;2024-02-21T03:20:03;10.45;;;3.92;;
5060;SDS011;2549;52.128;21.068;2024-02-21T03:22:40;9.50;;;3.75;;
5060;SDS011;2549;52.128;21.068;2024-02-21T03:25:08;10.02;;;3.50;;
5060;SDS011;2549;52.128;21.068;2024-02-21T03:27:36;11.27;;;3.97;;
5060;SDS011;2549;52.128;21.068;2024-02-21T03:30:03;5.57;;;3.65;;
5060;SDS011;2549;52.128;21.068;2024-02-21T03:32:31;9.40;;;4.15;;
5060;SDS011;2549;52.128;21.068;2024-02-21T03:34:58;8.55;;;4.25;;
5060;SDS011;2549;52.128;21.068;2024-02-21T03:37:25;10.23;;;4.20;;
5060;SDS011;2549;52.128;21.068;2024-02-21T03:39:52;6.97;;;4.03;;
5060;SDS011;2549;52.128;21.068;2024-02-21T03:42:20;9.25;;;4.45;;
5060;SDS011;2549;52.128;21.068;2024-02-21T03:44:47;11.68;;;4.72;;
5060;SDS011;2549;52.128;21.068;2024-02-21T03:47:14;9.15;;;4.20;;
5060;SDS011;2549;52.128;21.068;2024-02-21T03:49:40;8.07;;;3.90;;
5060;SDS011;2549;52.128;21.068;2024-02-21T03:52:07;15.18;;;4.35;;
5060;SDS011;2549;52.128;21.068;2024-02-21T03:54:35;10.30;;;4.57;;
5060;SDS011;2549;52.128;21.068;2024-02-21T03:57:02;7.28;;;3.05;;
5060;SDS011;2549;52.128;21.068;2024-02-21T03:59:29;7.90;;;3.72;;
5060;SDS011;2549;52.128;21.068;2024-02-21T04:01:56;12.63;;;4.30;;
5060;SDS011;2549;52.128;21.068;2024-02-21T04:04:23;7.20;;;3.72;;
5060;SDS011;2549;52.128;21.068;2024-02-21T04:06:51;10.90;;;3.78;;
5060;SDS011;2549;52.128;21.068;2024-02-21T04:09:18;15.18;;;5.07;;
5060;SDS011;2549;52.128;21.068;2024-02-21T04:11:45;8.32;;;4.45;;
5060;SDS011;2549;52.128;21.068;2024-02-21T04:14:12;6.85;;;4.25;;
5060;SDS011;2549;52.128;21.068;2024-02-21T04:16:39;15.75;;;3.50;;
5060;SDS011;2549;52.128;21.068;2024-02-21T04:19:07;6.32;;;3.90;;
5060;SDS011;2549;52.128;21.068;2024-02-21T04:21:34;13.88;;;4.35;;
5060;SDS011;2549;52.128;21.068;2024-02-21T04:24:02;13.77;;;3.80;;
5060;SDS011;2549;52.128;21.068;2024-02-21T04:26:32;9.00;;;4.10;;
5060;SDS011;2549;52.128;21.068;2024-02-21T04:29:00;9.45;;;4.25;;
5060;SDS011;2549;52.128;21.068;2024-02-21T04:31:28;8.70;;;4.32;;
5060;SDS011;2549;52.128;21.068;2024-02-21T04:33:55;6.28;;;3.67;;
5060;SDS011;2549;52.128;21.068;2024-02-21T04:36:22;12.10;;;4.43;;
5060;SDS011;2549;52.128;21.068;2024-02-21T04:38:50;10.82;;;3.75;;
5060;SDS011;2549;52.128;21.068;2024-02-21T04:41:17;16.38;;;4.68;;
5060;SDS011;2549;52.128;21.068;2024-02-21T04:43:45;9.27;;;4.38;;
5060;SDS011;2549;52.128;21.068;2024-02-21T04:46:14;13.25;;;3.75;;
5060;SDS011;2549;52.128;21.068;2024-02-21T04:48:42;10.15;;;4.22;;
5060;SDS011;2549;52.128;21.068;2024-02-21T04:51:08;17.15;;;4.15;;
5060;SDS011;2549;52.128;21.068;2024-02-21T04:53:35;8.35;;;3.58;;
5060;SDS011;2549;52.128;21.068;2024-02-21T04:56:02;9.70;;;4.95;;
5060;SDS011;2549;52.128;21.068;2024-02-21T04:58:29;9.32;;;3.70;;
5060;SDS011;2549;52.128;21.068;2024-02-21T05:00:56;7.90;;;4.18;;
5060;SDS011;2549;52.128;21.068;2024-02-21T05:03:24;8.55;;;4.13;;
5060;SDS011;2549;52.128;21.068;2024-02-21T05:05:51;6.07;;;3.95;;
5060;SDS011;2549;52.128;21.068;2024-02-21T05:08:18;10.77;;;3.30;;
5060;SDS011;2549;52.128;21.068;2024-02-21T05:10:45;10.15;;;4.80;;
5060;SDS011;2549;52.128;21.068;2024-02-21T05:13:12;12.52;;;3.97;;
5060;SDS011;2549;52.128;21.068;2024-02-21T05:15:39;12.60;;;4.25;;
5060;SDS011;2549;52.128;21.068;2024-02-21T05:18:06;12.88;;;4.60;;
5060;SDS011;2549;52.128;21.068;2024-02-21T05:20:33;11.32;;;3.92;;
5060;SDS011;2549;52.128;21.068;2024-02-21T05:23:01;10.13;;;3.63;;
5060;SDS011;2549;52.128;21.068;2024-02-21T05:25:28;9.60;;;4.88;;
5060;SDS011;2549;52.128;21.068;2024-02-21T05:27:55;12.63;;;4.05;;
5060;SDS011;2549;52.128;21.068;2024-02-21T05:30:22;13.95;;;4.55;;
5060;SDS011;2549;52.128;21.068;2024-02-21T05:32:52;10.55;;;4.95;;
5060;SDS011;2549;52.128;21.068;2024-02-21T05:35:19;11.43;;;4.07;;
5060;SDS011;2549;52.128;21.068;2024-02-21T05:37:48;13.30;;;4.25;;
5060;SDS011;2549;52.128;21.068;2024-02-21T05:40:19;9.00;;;4.85;;
5060;SDS011;2549;52.128;21.068;2024-02-21T05:42:45;6.22;;;3.83;;
5060;SDS011;2549;52.128;21.068;2024-02-21T05:45:12;8.20;;;4.38;;
5060;SDS011;2549;52.128;21.068;2024-02-21T05:47:42;14.82;;;5.57;;
5060;SDS011;2549;52.128;21.068;2024-02-21T05:50:09;10.63;;;4.25;;
5060;SDS011;2549;52.128;21.068;2024-02-21T05:52:36;6.47;;;4.32;;
5060;SDS011;2549;52.128;21.068;2024-02-21T05:55:03;12.15;;;4.70;;
5060;SDS011;2549;52.128;21.068;2024-02-21T05:57:32;8.57;;;4.82;;
5060;SDS011;2549;52.128;21.068;2024-02-21T05:59:59;16.75;;;4.93;;
5060;SDS011;2549;52.128;21.068;2024-02-21T06:02:26;9.95;;;5.03;;
5060;SDS011;2549;52.128;21.068;2024-02-21T06:04:53;10.75;;;5.05;;
5060;SDS011;2549;52.128;21.068;2024-02-21T06:07:21;16.48;;;5.85;;
5060;SDS011;2549;52.128;21.068;2024-02-21T06:09:48;21.10;;;5.68;;
5060;SDS011;2549;52.128;21.068;2024-02-21T06:12:14;9.13;;;4.75;;
5060;SDS011;2549;52.128;21.068;2024-02-21T06:14:41;14.50;;;5.68;;
5060;SDS011;2549;52.128;21.068;2024-02-21T06:17:08;15.93;;;5.85;;
5060;SDS011;2549;52.128;21.068;2024-02-21T06:19:35;9.40;;;5.25;;
5060;SDS011;2549;52.128;21.068;2024-02-21T06:22:02;10.90;;;6.15;;
5060;SDS011;2549;52.128;21.068;2024-02-21T06:24:35;12.15;;;5.68;;
5060;SDS011;2549;52.128;21.068;2024-02-21T06:27:05;20.02;;;6.43;;
5060;SDS011;2549;52.128;21.068;2024-02-21T06:29:36;14.82;;;5.60;;
5060;SDS011;2549;52.128;21.068;2024-02-21T06:32:03;16.63;;;5.57;;
5060;SDS011;2549;52.128;21.068;2024-02-21T06:34:31;14.05;;;6.25;;
5060;SDS011;2549;52.128;21.068;2024-02-21T06:37:00;15.85;;;6.05;;
5060;SDS011;2549;52.128;21.068;2024-02-21T06:39:27;12.40;;;6.00;;
5060;SDS011;2549;52.128;21.068;2024-02-21T06:41:55;12.48;;;5.88;;
5060;SDS011;2549;52.128;21.068;2024-02-21T06:44:28;14.98;;;6.20;;
5060;SDS011;2549;52.128;21.068;2024-02-21T06:46:55;10.95;;;6.32;;
5060;SDS011;2549;52.128;21.068;2024-02-21T06:49:25;8.50;;;6.03;;
5060;SDS011;2549;52.128;21.068;2024-02-21T06:51:54;13.75;;;6.50;;
5060;SDS011;2549;52.128;21.068;2024-02-21T06:54:20;8.55;;;5.40;;
5060;SDS011;2549;52.128;21.068;2024-02-21T06:56:47;13.40;;;7.20;;
5060;SDS011;2549;52.128;21.068;2024-02-21T06:59:14;17.58;;;6.60;;
5060;SDS011;2549;52.128;21.068;2024-02-21T07:01:49;15.40;;;6.65;;
5060;SDS011;2549;52.128;21.068;2024-02-21T07:04:19;18.85;;;7.80;;
5060;SDS011;2549;52.128;21.068;2024-02-21T07:06:46;21.42;;;8.07;;
5060;SDS011;2549;52.128;21.068;2024-02-21T07:09:13;19.00;;;7.97;;
5060;SDS011;2549;52.128;21.068;2024-02-21T07:11:40;18.77;;;7.13;;
5060;SDS011;2549;52.128;21.068;2024-02-21T07:14:07;17.20;;;7.18;;
5060;SDS011;2549;52.128;21.068;2024-02-21T07:16:34;19.55;;;7.85;;
5060;SDS011;2549;52.128;21.068;2024-02-21T07:19:02;15.52;;;8.38;;
5060;SDS011;2549;52.128;21.068;2024-02-21T07:21:29;21.63;;;7.95;;
5060;SDS011;2549;52.128;21.068;2024-02-21T07:23:56;17.73;;;7.82;;
5060;SDS011;2549;52.128;21.068;2024-02-21T07:26:24;19.45;;;7.55;;
5060;SDS011;2549;52.128;21.068;2024-02-21T07:28:51;34.97;;;9.90;;
5060;SDS011;2549;52.128;21.068;2024-02-21T07:31:18;21.70;;;9.07;;
5060;SDS011;2549;52.128;21.068;2024-02-21T07:33:45;23.63;;;9.35;;
5060;SDS011;2549;52.128;21.068;2024-02-21T07:36:12;17.95;;;8.55;;
5060;SDS011;2549;52.128;21.068;2024-02-21T07:38:39;22.08;;;10.02;;
5060;SDS011;2549;52.128;21.068;2024-02-21T07:41:06;22.08;;;8.95;;
5060;SDS011;2549;52.128;21.068;2024-02-21T07:43:33;31.20;;;10.68;;
5060;SDS011;2549;52.128;21.068;2024-02-21T07:46:00;22.67;;;8.60;;
5060;SDS011;2549;52.128;21.068;2024-02-21T07:48:27;18.80;;;9.20;;
5060;SDS011;2549;52.128;21.068;2024-02-21T07:50:57;23.65;;;10.20;;
5060;SDS011;2549;52.128;21.068;2024-02-21T07:53:24;22.25;;;9.20;;
5060;SDS011;2549;52.128;21.068;2024-02-21T07:55:51;20.27;;;9.30;;
5060;SDS011;2549;52.128;21.068;2024-02-21T07:58:18;30.85;;;10.05;;
5060;SDS011;2549;52.128;21.068;2024-02-21T08:00:45;21.35;;;10.02;;
5060;SDS011;2549;52.128;21.068;2024-02-21T08:03:12;21.92;;;9.77;;
5060;SDS011;2549;52.128;21.068;2024-02-21T08:05:41;31.67;;;9.93;;
5060;SDS011;2549;52.128;21.068;2024-02-21T08:08:08;28.48;;;10.15;;
5060;SDS011;2549;52.128;21.068;2024-02-21T08:10:35;28.50;;;10.23;;
5060;SDS011;2549;52.128;21.068;2024-02-21T08:13:02;38.03;;;10.63;;
5060;SDS011;2549;52.128;21.068;2024-02-21T08:15:29;22.50;;;9.68;;
5060;SDS011;2549;52.128;21.068;2024-02-21T08:17:56;30.38;;;11.10;;
5060;SDS011;2549;52.128;21.068;2024-02-21T08:20:26;26.05;;;10.00;;
5060;SDS011;2549;52.128;21.068;2024-02-21T08:22:53;23.92;;;9.57;;
5060;SDS011;2549;52.128;21.068;2024-02-21T08:25:20;34.22;;;10.80;;
5060;SDS011;2549;52.128;21.068;2024-02-21T08:27:47;29.88;;;9.30;;
5060;SDS011;2549;52.128;21.068;2024-02-21T08:30:14;23.92;;;9.30;;
5060;SDS011;2549;52.128;21.068;2024-02-21T08:32:41;22.20;;;9.35;;
5060;SDS011;2549;52.128;21.068;2024-02-21T08:35:09;23.70;;;9.50;;
5060;SDS011;2549;52.128;21.068;2024-02-21T08:37:36;23.20;;;8.93;;
5060;SDS011;2549;52.128;21.068;2024-02-21T08:40:03;26.00;;;9.30;;
5060;SDS011;2549;52.128;21.068;2024-02-21T08:42:35;24.55;;;9.10;;
5060;SDS011;2549;52.128;21.068;2024-02-21T08:45:03;20.25;;;8.88;;
5060;SDS011;2549;52.128;21.068;2024-02-21T08:47:31;26.30;;;9.15;;
5060;SDS011;2549;52.128;21.068;2024-02-21T08:49:58;25.60;;;9.05;;
5060;SDS011;2549;52.128;21.068;2024-02-21T08:52:31;21.02;;;9.23;;
5060;SDS011;2549;52.128;21.068;2024-02-21T08:54:58;18.53;;;9.03;;
5060;SDS011;2549;52.128;21.068;2024-02-21T08:57:26;23.40;;;9.18;;
5060;SDS011;2549;52.128;21.068;2024-02-21T08:59:54;16.97;;;8.10;;
5060;SDS011;2549;52.128;21.068;2024-02-21T09:02:20;21.70;;;7.55;;
5060;SDS011;2549;52.128;21.068;2024-02-21T09:04:47;25.13;;;8.13;;
5060;SDS011;2549;52.128;21.068;2024-02-21T09:07:14;19.53;;;8.20;;
5060;SDS011;2549;52.128;21.068;2024-02-21T09:09:41;17.07;;;7.20;;
5060;SDS011;2549;52.128;21.068;2024-02-21T09:12:08;16.67;;;6.90;;
5060;SDS011;2549;52.128;21.068;2024-02-21T09:14:36;27.10;;;8.47;;
5060;SDS011;2549;52.128;21.068;2024-02-21T09:17:04;17.57;;;7.60;;
5060;SDS011;2549;52.128;21.068;2024-02-21T09:19:35;21.27;;;8.60;;
5060;SDS011;2549;52.128;21.068;2024-02-21T09:22:02;17.40;;;6.80;;
5060;SDS011;2549;52.128;21.068;2024-02-21T09:24:29;25.73;;;6.93;;
5060;SDS011;2549;52.128;21.068;2024-02-21T09:26:56;15.83;;;7.43;;
5060;SDS011;2549;52.128;21.068;2024-02-21T09:29:23;27.03;;;7.50;;
5060;SDS011;2549;52.128;21.068;2024-02-21T09:31:53;14.17;;;6.90;;
5060;SDS011;2549;52.128;21.068;2024-02-21T09:34:20;23.08;;;6.82;;
5060;SDS011;2549;52.128;21.068;2024-02-21T09:36:48;13.35;;;5.38;;
5060;SDS011;2549;52.128;21.068;2024-02-21T09:39:15;21.33;;;7.63;;
5060;SDS011;2549;52.128;21.068;2024-02-21T09:41:54;23.93;;;6.37;;
5060;SDS011;2549;52.128;21.068;2024-02-21T09:44:31;16.40;;;6.37;;
5060;SDS011;2549;52.128;21.068;2024-02-21T09:47:07;18.63;;;5.82;;
5060;SDS011;2549;52.128;21.068;2024-02-21T09:49:40;21.07;;;5.07;;
5060;SDS011;2549;52.128;21.068;2024-02-21T09:52:09;24.23;;;5.68;;
5060;SDS011;2549;52.128;21.068;2024-02-21T09:54:39;12.33;;;4.17;;
5060;SDS011;2549;52.128;21.068;2024-02-21T09:57:11;26.73;;;4.80;;
5060;SDS011;2549;52.128;21.068;2024-02-21T09:59:39;9.60;;;4.60;;
5060;SDS011;2549;52.128;21.068;2024-02-21T10:02:08;17.03;;;4.33;;
5060;SDS011;2549;52.128;21.068;2024-02-21T10:04:35;13.30;;;5.30;;
5060;SDS011;2549;52.128;21.068;2024-02-21T10:07:02;19.80;;;5.93;;
5060;SDS011;2549;52.128;21.068;2024-02-21T10:09:31;18.37;;;5.70;;
5060;SDS011;2549;52.128;21.068;2024-02-21T10:12:09;15.93;;;6.07;;
5060;SDS011;2549;52.128;21.068;2024-02-21T10:14:39;14.40;;;5.93;;
5060;SDS011;2549;52.128;21.068;2024-02-21T10:17:06;14.55;;;7.07;;
5060;SDS011;2549;52.128;21.068;2024-02-21T10:19:37;25.37;;;7.07;;
5060;SDS011;2549;52.128;21.068;2024-02-21T10:22:07;27.03;;;5.80;;
5060;SDS011;2549;52.128;21.068;2024-02-21T10:24:35;12.13;;;5.53;;
5060;SDS011;2549;52.128;21.068;2024-02-21T10:27:09;17.80;;;5.10;;
5060;SDS011;2549;52.128;21.068;2024-02-21T10:29:40;10.90;;;4.67;;
5060;SDS011;2549;52.128;21.068;2024-02-21T10:32:12;18.63;;;6.10;;
5060;SDS011;2549;52.128;21.068;2024-02-21T10:34:41;21.00;;;6.17;;
5060;SDS011;2549;52.128;21.068;2024-02-21T10:37:10;13.55;;;6.10;;
5060;SDS011;2549;52.128;21.068;2024-02-21T10:39:40;17.00;;;6.73;;
5060;SDS011;2549;52.128;21.068;2024-02-21T10:42:10;11.67;;;6.80;;
5060;SDS011;2549;52.128;21.068;2024-02-21T10:44:39;17.97;;;6.80;;
5060;SDS011;2549;52.128;21.068;2024-02-21T10:47:08;16.70;;;7.07;;
5060;SDS011;2549;52.128;21.068;2024-02-21T10:49:38;22.17;;;7.33;;
5060;SDS011;2549;52.128;21.068;2024-02-21T10:52:12;24.57;;;7.53;;
5060;SDS011;2549;52.128;21.068;2024-02-21T10:54:44;21.55;;;7.53;;
5060;SDS011;2549;52.128;21.068;2024-02-21T10:57:16;19.97;;;7.73;;
5060;SDS011;2549;52.128;21.068;2024-02-21T10:59:44;18.87;;;7.50;;
5060;SDS011;2549;52.128;21.068;2024-02-21T11:02:12;20.47;;;7.37;;
5060;SDS011;2549;52.128;21.068;2024-02-21T11:04:40;16.90;;;7.60;;
5060;SDS011;2549;52.128;21.068;2024-02-21T11:07:08;21.00;;;7.23;;
5060;SDS011;2549;52.128;21.068;2024-02-21T11:09:38;18.33;;;7.90;;
5060;SDS011;2549;52.128;21.068;2024-02-21T11:12:06;21.93;;;9.63;;
5060;SDS011;2549;52.128;21.068;2024-02-21T11:14:37;22.60;;;8.13;;
5060;SDS011;2549;52.128;21.068;2024-02-21T11:17:18;18.47;;;7.07;;
5060;SDS011;2549;52.128;21.068;2024-02-21T11:19:47;28.40;;;8.43;;
5060;SDS011;2549;52.128;21.068;2024-02-21T11:22:17;15.63;;;7.70;;
5060;SDS011;2549;52.128;21.068;2024-02-21T11:24:45;17.57;;;7.77;;
5060;SDS011;2549;52.128;21.068;2024-02-21T11:27:12;23.40;;;7.07;;
5060;SDS011;2549;52.128;21.068;2024-02-21T11:29:54;21.57;;;9.67;;
5060;SDS011;2549;52.128;21.068;2024-02-21T11:32:25;25.03;;;8.10;;
5060;SDS011;2549;52.128;21.068;2024-02-21T11:34:57;20.00;;;7.07;;
5060;SDS011;2549;52.128;21.068;2024-02-21T11:37:30;21.17;;;7.67;;
5060;SDS011;2549;52.128;21.068;2024-02-21T11:40:01;26.03;;;8.33;;
5060;SDS011;2549;52.128;21.068;2024-02-21T11:42:30;22.00;;;8.23;;
5060;SDS011;2549;52.128;21.068;2024-02-21T11:44:57;18.50;;;6.77;;
5060;SDS011;2549;52.128;21.068;2024-02-21T11:47:24;26.13;;;7.70;;
5060;SDS011;2549;52.128;21.068;2024-02-21T11:49:51;17.97;;;8.93;;
5060;SDS011;2549;52.128;21.068;2024-02-21T11:52:21;21.60;;;8.20;;
5060;SDS011;2549;52.128;21.068;2024-02-21T11:54:52;23.30;;;9.23;;
5060;SDS011;2549;52.128;21.068;2024-02-21T11:57:21;24.40;;;8.73;;
5060;SDS011;2549;52.128;21.068;2024-02-21T11:59:48;16.73;;;7.50;;
5060;SDS011;2549;52.128;21.068;2024-02-21T12:02:18;18.63;;;8.80;;
5060;SDS011;2549;52.128;21.068;2024-02-21T12:04:46;15.40;;;7.90;;
5060;SDS011;2549;52.128;21.068;2024-02-21T12:07:15;17.87;;;7.43;;
5060;SDS011;2549;52.128;21.068;2024-02-21T12:09:44;19.17;;;8.80;;
5060;SDS011;2549;52.128;21.068;2024-02-21T12:12:11;22.80;;;9.27;;
5060;SDS011;2549;52.128;21.068;2024-02-21T12:14:38;19.90;;;8.97;;
5060;SDS011;2549;52.128;21.068;2024-02-21T12:17:05;31.13;;;10.60;;
5060;SDS011;2549;52.128;21.068;2024-02-21T12:19:33;24.30;;;8.70;;
5060;SDS011;2549;52.128;21.068;2024-02-21T12:22:01;27.93;;;9.20;;
5060;SDS011;2549;52.128;21.068;2024-02-21T12:24:32;22.90;;;9.30;;
5060;SDS011;2549;52.128;21.068;2024-02-21T12:26:59;14.33;;;8.90;;
5060;SDS011;2549;52.128;21.068;2024-02-21T12:29:30;16.53;;;8.93;;
5060;SDS011;2549;52.128;21.068;2024-02-21T12:31:57;24.50;;;10.00;;
5060;SDS011;2549;52.128;21.068;2024-02-21T12:34:24;20.27;;;9.03;;
5060;SDS011;2549;52.128;21.068;2024-02-21T12:36:54;31.37;;;10.03;;
5060;SDS011;2549;52.128;21.068;2024-02-21T12:39:20;21.50;;;9.10;;
5060;SDS011;2549;52.128;21.068;2024-02-21T12:41:47;19.43;;;7.87;;
5060;SDS011;2549;52.128;21.068;2024-02-21T12:44:14;20.30;;;8.90;;
5060;SDS011;2549;52.128;21.068;2024-02-21T12:46:42;23.40;;;8.88;;
5060;SDS011;2549;52.128;21.068;2024-02-21T12:49:09;19.70;;;8.40;;
5060;SDS011;2549;52.128;21.068;2024-02-21T12:51:36;21.10;;;8.73;;
5060;SDS011;2549;52.128;21.068;2024-02-21T12:54:04;25.35;;;9.18;;
5060;SDS011;2549;52.128;21.068;2024-02-21T12:56:31;24.67;;;10.07;;
5060;SDS011;2549;52.128;21.068;2024-02-21T12:58:58;29.43;;;8.03;;
5060;SDS011;2549;52.128;21.068;2024-02-21T13:01:25;20.67;;;8.93;;
5060;SDS011;2549;52.128;21.068;2024-02-21T13:03:52;22.80;;;9.20;;
5060;SDS011;2549;52.128;21.068;2024-02-21T13:06:20;20.48;;;9.38;;
5060;SDS011;2549;52.128;21.068;2024-02-21T13:08:47;20.40;;;9.00;;
5060;SDS011;2549;52.128;21.068;2024-02-21T13:11:14;28.30;;;9.30;;
5060;SDS011;2549;52.128;21.068;2024-02-21T13:13:41;13.50;;;8.07;;
5060;SDS011;2549;52.128;21.068;2024-02-21T13:16:08;15.80;;;8.05;;
5060;SDS011;2549;52.128;21.068;2024-02-21T13:18:36;16.73;;;8.40;;
5060;SDS011;2549;52.128;21.068;2024-02-21T13:21:09;23.17;;;8.87;;
5060;SDS011;2549;52.128;21.068;2024-02-21T13:23:36;29.45;;;8.82;;
5060;SDS011;2549;52.128;21.068;2024-02-21T13:26:03;33.03;;;8.47;;
5060;SDS011;2549;52.128;21.068;2024-02-21T13:28:30;16.73;;;8.20;;
5060;SDS011;2549;52.128;21.068;2024-02-21T13:30:57;23.10;;;10.10;;
5060;SDS011;2549;52.128;21.068;2024-02-21T13:33:24;17.00;;;7.80;;
5060;SDS011;2549;52.128;21.068;2024-02-21T13:35:51;17.92;;;9.15;;
5060;SDS011;2549;52.128;21.068;2024-02-21T13:38:18;15.87;;;8.27;;
5060;SDS011;2549;52.128;21.068;2024-02-21T13:40:45;19.43;;;8.30;;
5060;SDS011;2549;52.128;21.068;2024-02-21T13:43:12;22.35;;;8.68;;
5060;SDS011;2549;52.128;21.068;2024-02-21T13:45:39;24.90;;;9.03;;
5060;SDS011;2549;52.128;21.068;2024-02-21T13:48:09;17.50;;;8.10;;
5060;SDS011;2549;52.128;21.068;2024-02-21T13:50:38;17.37;;;7.00;;
5060;SDS011;2549;52.128;21.068;2024-02-21T13:53:10;18.70;;;8.37;;
5060;SDS011;2549;52.128;21.068;2024-02-21T13:55:37;17.77;;;8.60;;
5060;SDS011;2549;52.128;21.068;2024-02-21T13:58:04;19.10;;;9.30;;
5060;SDS011;2549;52.128;21.068;2024-02-21T14:00:31;30.20;;;9.83;;
5060;SDS011;2549;52.128;21.068;2024-02-21T14:03:00;18.67;;;8.53;;
5060;SDS011;2549;52.128;21.068;2024-02-21T14:05:27;18.70;;;7.63;;
5060;SDS011;2549;52.128;21.068;2024-02-21T14:07:54;14.23;;;8.07;;
5060;SDS011;2549;52.128;21.068;2024-02-21T14:10:22;17.23;;;8.00;;
5060;SDS011;2549;52.128;21.068;2024-02-21T14:12:49;17.40;;;7.85;;
5060;SDS011;2549;52.128;21.068;2024-02-21T14:15:16;18.42;;;8.25;;
5060;SDS011;2549;52.128;21.068;2024-02-21T14:17:43;17.63;;;9.80;;
5060;SDS011;2549;52.128;21.068;2024-02-21T14:20:10;16.23;;;8.63;;
5060;SDS011;2549;52.128;21.068;2024-02-21T14:22:41;22.95;;;8.23;;
5060;SDS011;2549;52.128;21.068;2024-02-21T14:25:08;29.30;;;8.35;;
5060;SDS011;2549;52.128;21.068;2024-02-21T14:27:35;16.05;;;7.22;;
5060;SDS011;2549;52.128;21.068;2024-02-21T14:30:04;16.17;;;7.67;;
5060;SDS011;2549;52.128;21.068;2024-02-21T14:32:32;15.77;;;7.43;;
5060;SDS011;2549;52.128;21.068;2024-02-21T14:34:59;18.00;;;7.32;;
5060;SDS011;2549;52.128;21.068;2024-02-21T14:37:31;23.50;;;8.37;;
5060;SDS011;2549;52.128;21.068;2024-02-21T14:39:58;16.37;;;7.30;;
5060;SDS011;2549;52.128;21.068;2024-02-21T14:42:27;16.47;;;7.17;;
5060;SDS011;2549;52.128;21.068;2024-02-21T14:44:54;12.13;;;6.70;;
5060;SDS011;2549;52.128;21.068;2024-02-21T14:47:30;17.43;;;7.43;;
5060;SDS011;2549;52.128;21.068;2024-02-21T14:49:58;32.33;;;7.13;;
5060;SDS011;2549;52.128;21.068;2024-02-21T14:52:25;11.33;;;6.57;;
5060;SDS011;2549;52.128;21.068;2024-02-21T14:54:54;19.67;;;7.25;;